Time;durP1;ratioP1;P1;durP2;ratioP2;P2;SDS_P1;SDS_P2;PMS_P1;PMS_P2;Temp;Humidity;BMP_temperature;BMP_pressure;BME280_temperature;BME280_humidity;BME280_pressure;Samples;Min_cycle;Max_cycle;Signal;HPM_P1;HPM_P2
2022/03/21 00:01:42;;;;;;;33.95;17.20;;;4.00;99.90;;;;;;5075338;28;20158;-67
2022/03/21 00:04:08;;;;;;;32.80;16.35;;;3.90;99.90;;;;;;5074791;28;20138;-70
2022/03/21 00:06:34;;;;;;;30.52;14.98;;;4.00;99.90;;;;;;5074703;28;20031;-69
2022/03/21 00:08:59;;;;;;;30.60;15.52;;;4.00;99.90;;;;;;5074631;28;20032;-70
2022/03/21 00:11:25;;;;;;;32.20;16.00;;;4.00;99.90;;;;;;5074563;28;20023;-67
2022/03/21 00:13:53;;;;;;;33.33;15.35;;;4.00;99.90;;;;;;5074586;28;20488;-70
2022/03/21 00:16:19;;;;;;;30.38;16.10;;;4.00;99.90;;;;;;5074579;28;20020;-70
2022/03/21 00:18:45;;;;;;;30.88;14.52;;;4.10;99.90;;;;;;5074752;28;20028;-70
2022/03/21 00:21:10;;;;;;;33.90;15.20;;;4.20;99.90;;;;;;5074390;28;20036;-67
2022/03/21 00:23:36;;;;;;;36.47;15.73;;;4.20;99.90;;;;;;5074659;28;20035;-67
2022/03/21 00:26:03;;;;;;;33.38;16.02;;;4.30;99.90;;;;;;5074604;28;20025;-67
2022/03/21 00:28:28;;;;;;;26.60;15.13;;;4.30;99.90;;;;;;5074489;28;20031;-67
2022/03/21 00:30:55;;;;;;;29.45;15.35;;;4.30;99.90;;;;;;5074320;28;20410;-67
2022/03/21 00:33:21;;;;;;;33.00;15.15;;;4.30;99.90;;;;;;5073051;28;20048;-67
2022/03/21 00:35:50;;;;;;;31.38;15.23;;;4.30;99.90;;;;;;5074199;28;20016;-71
2022/03/21 00:38:16;;;;;;;30.02;15.57;;;4.30;99.90;;;;;;5074102;28;20021;-71
2022/03/21 00:40:46;;;;;;;36.30;15.85;;;4.20;99.90;;;;;;5074347;28;20028;-71
2022/03/21 00:43:23;;;;;;;30.88;14.95;;;4.30;99.90;;;;;;5074295;28;20020;-66
2022/03/21 00:45:53;;;;;;;30.40;15.38;;;4.30;99.90;;;;;;5074252;28;20362;-71
2022/03/21 00:48:20;;;;;;;32.92;15.20;;;4.40;99.90;;;;;;5073861;28;20625;-71
2022/03/21 00:50:45;;;;;;;29.48;15.15;;;4.30;99.90;;;;;;5073878;28;20499;-68
2022/03/21 00:53:11;;;;;;;28.38;15.32;;;4.20;99.90;;;;;;5073774;28;20021;-67
2022/03/21 00:55:37;;;;;;;33.35;16.30;;;4.20;99.90;;;;;;5073809;28;20491;-67
2022/03/21 00:58:03;;;;;;;32.70;14.98;;;4.20;99.90;;;;;;5073761;28;20480;-67
2022/03/21 01:00:31;;;;;;;32.15;15.32;;;4.20;99.90;;;;;;5073820;28;20068;-67
2022/03/21 01:02:58;;;;;;;32.03;14.32;;;4.20;99.90;;;;;;5073707;28;20071;-67
2022/03/21 01:05:24;;;;;;;31.88;15.77;;;4.20;99.90;;;;;;5074078;28;20032;-67
2022/03/21 01:07:51;;;;;;;28.23;14.02;;;4.20;99.90;;;;;;5073677;28;20028;-71
2022/03/21 01:10:18;;;;;;;36.17;15.18;;;4.10;99.90;;;;;;5073613;28;20048;-67
2022/03/21 01:12:45;;;;;;;28.30;14.52;;;4.00;99.90;;;;;;5073512;28;20033;-70
2022/03/21 01:15:14;;;;;;;29.55;15.00;;;3.90;99.90;;;;;;5073819;28;20384;-67
2022/03/21 01:17:42;;;;;;;28.85;14.90;;;3.90;99.90;;;;;;5073649;28;20107;-67
2022/03/21 01:20:08;;;;;;;27.52;15.15;;;3.80;99.90;;;;;;5073802;28;20443;-70
2022/03/21 01:22:34;;;;;;;38.78;15.15;;;3.90;99.90;;;;;;5073372;28;20050;-71
2022/03/21 01:24:59;;;;;;;38.92;15.63;;;3.90;99.90;;;;;;5073460;28;20149;-67
2022/03/21 01:27:25;;;;;;;30.50;14.85;;;3.90;99.90;;;;;;5073279;28;20040;-67
2022/03/21 01:29:51;;;;;;;28.27;14.60;;;3.90;99.90;;;;;;5073430;28;20025;-67
2022/03/21 01:32:17;;;;;;;32.10;16.65;;;3.90;99.90;;;;;;5073192;28;20051;-66
2022/03/21 01:34:43;;;;;;;30.63;15.43;;;4.00;99.90;;;;;;5073601;28;20464;-66
2022/03/21 01:37:09;;;;;;;30.33;16.42;;;3.90;99.90;;;;;;5073337;28;20469;-66
2022/03/21 01:39:34;;;;;;;36.72;16.60;;;3.80;99.90;;;;;;5073325;28;20116;-71
2022/03/21 01:42:00;;;;;;;39.13;15.60;;;3.80;99.90;;;;;;5073196;28;20484;-71
2022/03/21 01:44:25;;;;;;;37.53;16.92;;;3.80;99.90;;;;;;5073439;28;20372;-66
2022/03/21 01:46:51;;;;;;;29.90;15.35;;;3.80;99.90;;;;;;5077457;28;20476;-66
2022/03/21 01:49:17;;;;;;;29.08;15.68;;;3.80;99.90;;;;;;5077320;28;20424;-69
2022/03/21 01:51:43;;;;;;;39.10;15.38;;;3.90;99.90;;;;;;5077561;28;20051;-70
2022/03/21 01:56:54;;;;;;;34.33;16.17;;;3.90;99.90;;;;;;5077319;28;20082;-71
2022/03/21 01:59:21;;;;;;;27.92;15.70;;;3.80;99.90;;;;;;5077178;28;20033;-71
2022/03/21 02:01:47;;;;;;;32.13;15.45;;;3.80;99.90;;;;;;5077626;28;20103;-71
2022/03/21 02:04:13;;;;;;;29.17;15.50;;;3.70;99.90;;;;;;5077092;28;20033;-70
2022/03/21 02:06:38;;;;;;;34.83;17.85;;;3.60;99.90;;;;;;5077045;28;20024;-67
2022/03/21 02:09:09;;;;;;;32.53;15.13;;;3.70;99.90;;;;;;5076942;28;20035;-70
2022/03/21 02:11:36;;;;;;;31.20;14.85;;;3.90;99.90;;;;;;5077110;28;20039;-67
2022/03/21 02:14:05;;;;;;;38.53;17.17;;;4.00;99.90;;;;;;5076868;28;20525;-67
2022/03/21 02:16:32;;;;;;;38.47;18.13;;;4.00;99.90;;;;;;5076840;28;20126;-67
2022/03/21 02:19:03;;;;;;;39.38;17.20;;;3.90;99.90;;;;;;5076813;28;20527;-66
2022/03/21 02:21:50;;;;;;;34.47;15.40;;;3.90;99.90;;;;;;5077166;28;20377;-67
2022/03/21 02:24:29;;;;;;;41.72;17.00;;;4.00;99.90;;;;;;5076940;28;20388;-70
2022/03/21 02:26:58;;;;;;;31.63;15.15;;;4.00;99.90;;;;;;5076936;28;20384;-70
2022/03/21 02:29:26;;;;;;;35.85;17.38;;;4.10;99.90;;;;;;5076525;28;20114;-70
2022/03/21 02:31:54;;;;;;;32.85;15.80;;;4.20;99.90;;;;;;5076338;28;20400;-69
2022/03/21 02:34:23;;;;;;;34.63;15.98;;;4.20;99.90;;;;;;5076773;28;20024;-71
2022/03/21 02:36:52;;;;;;;38.60;15.50;;;4.10;99.90;;;;;;5076711;28;20013;-71
2022/03/21 02:39:18;;;;;;;33.10;15.25;;;4.10;99.90;;;;;;5076668;28;20106;-66
2022/03/21 02:41:43;;;;;;;34.90;17.65;;;4.00;99.90;;;;;;5076310;28;20032;-67
2022/03/21 02:44:09;;;;;;;32.30;15.70;;;4.00;99.90;;;;;;5076604;28;20469;-67
2022/03/21 02:46:36;;;;;;;29.63;15.05;;;4.00;99.90;;;;;;5076508;28;20086;-66
2022/03/21 02:49:02;;;;;;;32.70;14.25;;;4.10;99.90;;;;;;5076160;28;20468;-66
2022/03/21 02:51:31;;;;;;;35.03;16.23;;;4.10;99.90;;;;;;5076101;28;20028;-67
2022/03/21 02:53:56;;;;;;;33.30;15.30;;;4.10;99.90;;;;;;5076121;28;20016;-67
2022/03/21 02:56:22;;;;;;;29.50;15.05;;;4.10;99.90;;;;;;5075017;28;20471;-67
2022/03/21 02:58:48;;;;;;;31.75;15.85;;;4.10;99.90;;;;;;5076054;28;20449;-67
2022/03/21 03:01:16;;;;;;;34.72;15.27;;;4.00;99.90;;;;;;5076199;28;20104;-71
2022/03/21 03:03:42;;;;;;;28.58;14.98;;;4.00;99.90;;;;;;5074729;28;20602;-71
2022/03/21 03:06:09;;;;;;;36.90;15.27;;;4.10;99.90;;;;;;5076223;28;20039;-67
2022/03/21 03:08:36;;;;;;;30.83;14.23;;;4.10;99.90;;;;;;5076062;28;20110;-67
2022/03/21 03:11:02;;;;;;;31.83;15.25;;;4.10;99.90;;;;;;5076161;28;20016;-70
2022/03/21 03:13:28;;;;;;;34.05;16.33;;;4.10;99.90;;;;;;5075828;28;20487;-70
2022/03/21 03:15:54;;;;;;;29.15;15.52;;;4.10;99.90;;;;;;5076081;28;20023;-66
2022/03/21 03:18:20;;;;;;;30.60;15.07;;;4.00;99.90;;;;;;5075744;28;20103;-69
2022/03/21 03:20:53;;;;;;;31.75;14.88;;;4.00;99.90;;;;;;5075706;28;20107;-70
2022/03/21 03:23:21;;;;;;;30.65;15.40;;;4.10;99.90;;;;;;5075631;28;20035;-70
2022/03/21 03:25:48;;;;;;;29.02;14.57;;;4.00;99.90;;;;;;5075558;28;20149;-70
2022/03/21 03:28:14;;;;;;;28.45;14.02;;;3.90;99.90;;;;;;5075492;28;20503;-67
2022/03/21 03:30:41;;;;;;;28.45;14.55;;;3.90;99.90;;;;;;5075646;28;20032;-66
2022/03/21 03:33:08;;;;;;;33.78;14.02;;;3.80;99.90;;;;;;5075772;28;20028;-71
2022/03/21 03:35:34;;;;;;;32.45;15.38;;;3.80;99.90;;;;;;5075479;28;20111;-70
2022/03/21 03:37:59;;;;;;;30.90;15.20;;;3.80;99.90;;;;;;5075390;28;20024;-70
2022/03/21 03:40:25;;;;;;;29.55;13.82;;;3.80;99.90;;;;;;5075325;28;20029;-70
2022/03/21 03:42:51;;;;;;;26.75;14.98;;;3.80;99.90;;;;;;5075205;28;20477;-67
2022/03/21 03:45:16;;;;;;;31.60;14.82;;;3.80;99.90;;;;;;5075335;28;20534;-69
2022/03/21 03:47:42;;;;;;;28.83;14.63;;;3.70;99.90;;;;;;5075081;28;20434;-70
2022/03/21 03:50:08;;;;;;;31.02;15.13;;;3.60;99.90;;;;;;5075196;28;20016;-70
2022/03/21 03:52:34;;;;;;;29.90;14.90;;;3.60;99.90;;;;;;5074951;28;20121;-70
2022/03/21 03:54:59;;;;;;;39.20;15.05;;;3.60;99.90;;;;;;5075020;28;20027;-70
2022/03/21 03:57:25;;;;;;;29.00;15.05;;;3.60;99.90;;;;;;5074963;28;20163;-66
2022/03/21 03:59:51;;;;;;;25.48;13.45;;;3.70;99.90;;;;;;5074927;28;20031;-70
2022/03/21 04:02:17;;;;;;;34.13;15.02;;;3.60;99.90;;;;;;5074821;28;20013;-70
2022/03/21 04:04:42;;;;;;;29.48;14.38;;;3.60;99.90;;;;;;5075066;28;20021;-70
2022/03/21 04:07:08;;;;;;;28.30;15.10;;;3.60;99.90;;;;;;5075014;28;20376;-70
2022/03/21 04:09:34;;;;;;;26.42;13.65;;;3.60;99.90;;;;;;5074718;28;20032;-70
2022/03/21 04:12:00;;;;;;;30.50;15.18;;;3.70;99.90;;;;;;5074753;28;20024;-70
2022/03/21 04:14:25;;;;;;;33.35;15.90;;;3.80;99.90;;;;;;5075152;28;20507;-70
2022/03/21 04:16:51;;;;;;;31.48;15.18;;;3.80;99.90;;;;;;5074555;28;20016;-70
2022/03/21 04:19:16;;;;;;;30.58;14.43;;;4.00;99.90;;;;;;5074507;28;20546;-70
2022/03/21 04:21:42;;;;;;;29.17;14.98;;;4.00;99.90;;;;;;5074387;28;20029;-70
2022/03/21 04:24:08;;;;;;;30.40;15.18;;;4.10;99.90;;;;;;5074979;28;20468;-70
2022/03/21 04:26:33;;;;;;;34.90;14.38;;;4.10;99.90;;;;;;5074369;28;20408;-70
2022/03/21 04:29:02;;;;;;;34.13;15.48;;;4.10;99.90;;;;;;5074277;28;20041;-70
2022/03/21 04:31:28;;;;;;;28.95;14.80;;;4.20;99.90;;;;;;5074095;28;20388;-70
2022/03/21 04:33:53;;;;;;;30.23;14.25;;;4.20;99.90;;;;;;5074835;28;20020;-70
2022/03/21 04:36:19;;;;;;;28.58;14.45;;;4.30;99.90;;;;;;5074341;28;20486;-70
2022/03/21 04:38:45;;;;;;;27.15;14.40;;;4.40;99.90;;;;;;5074132;28;20024;-70
2022/03/21 04:41:11;;;;;;;30.05;14.15;;;4.40;99.90;;;;;;5074015;28;20032;-69
2022/03/21 04:43:36;;;;;;;31.85;14.70;;;4.50;99.90;;;;;;5074568;28;20029;-69
2022/03/21 04:46:02;;;;;;;26.02;13.35;;;4.50;99.90;;;;;;5073997;28;20024;-70
2022/03/21 04:48:27;;;;;;;24.40;13.45;;;4.60;99.90;;;;;;5074152;28;20031;-70
2022/03/21 04:50:53;;;;;;;29.52;14.88;;;4.60;99.90;;;;;;5073914;28;20028;-70
2022/03/21 04:53:19;;;;;;;30.95;14.80;;;4.60;99.90;;;;;;5074070;28;20017;-70
2022/03/21 04:55:45;;;;;;;31.30;15.20;;;4.60;99.90;;;;;;5073826;28;20021;-70
2022/03/21 04:58:11;;;;;;;29.42;14.30;;;4.70;99.90;;;;;;5074596;28;20039;-70
2022/03/21 05:00:38;;;;;;;28.85;13.10;;;4.70;99.90;;;;;;5073783;28;20024;-70
2022/03/21 05:03:07;;;;;;;29.65;14.35;;;4.60;99.90;;;;;;5073737;28;20024;-70
2022/03/21 05:05:35;;;;;;;27.02;13.95;;;4.60;99.90;;;;;;5072803;28;20026;-69
2022/03/21 05:08:02;;;;;;;28.90;14.27;;;4.70;99.90;;;;;;5073485;28;20024;-70
2022/03/21 05:10:29;;;;;;;28.77;15.45;;;4.70;99.90;;;;;;5073825;28;20464;-70
2022/03/21 05:12:54;;;;;;;28.52;15.25;;;4.70;99.90;;;;;;5073836;28;20107;-70
2022/03/21 05:15:20;;;;;;;33.05;15.55;;;4.80;99.90;;;;;;5073595;28;20067;-70
2022/03/21 05:17:46;;;;;;;28.05;14.63;;;4.80;99.90;;;;;;5073571;28;20093;-70
2022/03/21 05:20:16;;;;;;;28.33;13.73;;;4.80;99.90;;;;;;5072963;28;20021;-70
2022/03/21 05:22:43;;;;;;;34.70;14.52;;;4.70;99.90;;;;;;5073433;28;20123;-70
2022/03/21 05:36:08;;;;;;;29.33;14.07;;;4.80;99.90;;;;;;5073443;28;20455;-66
2022/03/21 05:38:33;;;;;;;27.15;14.15;;;4.80;99.90;;;;;;5073342;28;20029;-66
2022/03/21 05:41:00;;;;;;;25.20;13.77;;;4.80;99.90;;;;;;5073309;28;20472;-66
2022/03/21 05:43:27;;;;;;;26.48;14.90;;;4.80;99.90;;;;;;5073186;28;20086;-66
2022/03/21 05:45:53;;;;;;;31.05;15.52;;;4.80;99.90;;;;;;5073256;28;20028;-66
2022/03/21 05:51:05;;;;;;;27.75;13.50;;;4.80;99.90;;;;;;5073430;28;20089;-67
2022/03/21 05:53:31;;;;;;;30.85;15.45;;;5.00;99.90;;;;;;5073173;28;20086;-66
2022/03/21 05:56:00;;;;;;;29.77;14.18;;;4.90;99.90;;;;;;5073452;28;20107;-66
2022/03/21 05:58:28;;;;;;;32.88;14.82;;;5.00;99.90;;;;;;5073127;28;20034;-66
2022/03/21 06:00:55;;;;;;;28.42;14.68;;;4.90;99.90;;;;;;5073088;28;20104;-66
2022/03/21 06:03:21;;;;;;;29.38;14.57;;;4.90;99.90;;;;;;5072977;28;20361;-66
2022/03/21 06:05:46;;;;;;;30.17;14.98;;;4.90;99.90;;;;;;5073039;28;20025;-66
2022/03/21 06:08:12;;;;;;;28.00;14.20;;;4.90;99.90;;;;;;5072971;28;20025;-66
2022/03/21 06:10:38;;;;;;;32.53;15.23;;;5.00;99.90;;;;;;5073271;28;20017;-66
2022/03/21 06:13:05;;;;;;;29.83;15.45;;;5.00;99.90;;;;;;5072905;28;20495;-66
2022/03/21 06:15:32;;;;;;;32.75;14.48;;;5.10;99.90;;;;;;5073231;28;20103;-66
2022/03/21 06:17:59;;;;;;;27.60;14.63;;;5.10;99.90;;;;;;5071647;28;20472;-66
2022/03/21 06:20:26;;;;;;;25.90;13.55;;;5.10;99.90;;;;;;5072880;28;20472;-66
2022/03/21 06:22:52;;;;;;;29.00;14.98;;;5.10;99.90;;;;;;5072843;28;20139;-66
2022/03/21 06:25:18;;;;;;;35.13;15.52;;;5.20;99.90;;;;;;5072855;28;20063;-66
2022/03/21 06:27:43;;;;;;;27.88;14.77;;;5.20;99.90;;;;;;5073008;28;20052;-66
2022/03/21 06:30:10;;;;;;;32.30;14.38;;;5.20;99.90;;;;;;5072830;28;20029;-66
2022/03/21 06:32:37;;;;;;;30.25;14.32;;;5.20;99.90;;;;;;5076234;28;20060;-66
2022/03/21 06:35:04;;;;;;;27.45;13.93;;;5.30;99.90;;;;;;5076804;28;20021;-66
2022/03/21 06:37:31;;;;;;;27.35;13.90;;;5.30;99.90;;;;;;5076345;28;20024;-66
2022/03/21 06:39:57;;;;;;;30.55;15.43;;;5.30;99.90;;;;;;5076448;28;20028;-66
2022/03/21 06:42:23;;;;;;;26.70;14.70;;;5.40;99.90;;;;;;5076657;28;20029;-66
2022/03/21 06:44:50;;;;;;;31.13;14.15;;;5.40;99.90;;;;;;5076559;28;20091;-66
2022/03/21 06:47:17;;;;;;;31.60;14.43;;;5.40;99.90;;;;;;5076354;28;20028;-66
2022/03/21 06:49:43;;;;;;;32.90;15.10;;;5.50;99.90;;;;;;5076459;28;20487;-66
2022/03/21 06:52:09;;;;;;;30.60;14.95;;;5.60;99.90;;;;;;5076511;28;20523;-66
2022/03/21 06:54:35;;;;;;;29.30;14.57;;;5.80;99.90;;;;;;5076231;28;20086;-66
2022/03/21 06:57:01;;;;;;;34.78;14.90;;;5.90;99.90;;;;;;5076515;28;20025;-66
2022/03/21 06:59:29;;;;;;;32.35;15.07;;;5.90;99.90;;;;;;5076138;28;20031;-66
2022/03/21 07:01:58;;;;;;;25.83;13.73;;;6.00;99.90;;;;;;5076012;28;20112;-66
2022/03/21 07:04:25;;;;;;;29.48;14.02;;;6.10;99.90;;;;;;5075989;28;20024;-66
2022/03/21 07:06:51;;;;;;;28.83;14.73;;;6.30;99.90;;;;;;5076025;28;20020;-66
2022/03/21 07:09:16;;;;;;;29.90;15.38;;;6.50;99.90;;;;;;5076135;28;20035;-66
2022/03/21 07:11:42;;;;;;;29.27;14.77;;;6.70;99.90;;;;;;5075823;28;20024;-66
2022/03/21 07:14:08;;;;;;;29.10;15.18;;;6.90;99.90;;;;;;5075892;28;20490;-66
2022/03/21 07:16:33;;;;;;;25.42;14.57;;;7.00;99.90;;;;;;5076056;28;20481;-66
2022/03/21 07:18:59;;;;;;;27.75;14.27;;;7.10;99.90;;;;;;5075913;28;20086;-66
2022/03/21 07:21:24;;;;;;;28.13;14.98;;;7.10;99.90;;;;;;5075644;28;20025;-66
2022/03/21 07:23:50;;;;;;;31.85;14.90;;;7.10;99.90;;;;;;5075659;28;20473;-66
2022/03/21 07:26:15;;;;;;;29.05;14.70;;;7.20;99.90;;;;;;5075921;28;20024;-66
2022/03/21 07:28:41;;;;;;;30.23;16.20;;;7.40;99.90;;;;;;5075469;28;20033;-67
2022/03/21 07:31:09;;;;;;;31.73;14.93;;;7.40;99.90;;;;;;5075353;28;20425;-67
2022/03/21 07:33:36;;;;;;;26.23;14.35;;;7.70;99.90;;;;;;5075753;28;20032;-66
2022/03/21 07:36:02;;;;;;;32.42;15.48;;;7.70;99.90;;;;;;5075587;28;20025;-66
2022/03/21 07:38:29;;;;;;;26.60;15.48;;;7.80;99.90;;;;;;5075326;28;20024;-66
2022/03/21 07:40:55;;;;;;;26.45;15.90;;;7.70;99.90;;;;;;5075623;28;20116;-66
2022/03/21 07:43:21;;;;;;;24.90;14.20;;;7.70;99.90;;;;;;5074904;28;20537;-67
2022/03/21 07:48:30;;;;;;;30.45;15.82;;;7.80;99.90;;;;;;5075428;28;20495;-67
2022/03/21 07:50:57;;;;;;;27.30;14.18;;;7.60;99.90;;;;;;5075667;28;20024;-66
2022/03/21 07:53:23;;;;;;;32.72;14.82;;;7.40;99.90;;;;;;5074964;28;20043;-67
2022/03/21 07:55:49;;;;;;;25.65;14.27;;;7.50;99.90;;;;;;5075120;28;20460;-66
2022/03/21 07:58:15;;;;;;;28.23;15.35;;;7.60;99.90;;;;;;5075060;28;20085;-66
2022/03/21 08:00:44;;;;;;;27.30;13.82;;;7.60;99.90;;;;;;5075161;28;20480;-67
2022/03/21 08:03:11;;;;;;;26.77;14.98;;;7.50;99.90;;;;;;5074850;28;20459;-67
2022/03/21 08:05:37;;;;;;;26.98;14.65;;;7.50;99.90;;;;;;5075371;28;20020;-67
2022/03/21 08:08:03;;;;;;;29.75;14.88;;;7.60;99.90;;;;;;5074826;28;20052;-68
2022/03/21 08:10:29;;;;;;;29.13;15.07;;;7.60;99.90;;;;;;5074721;28;20431;-68
2022/03/21 08:12:56;;;;;;;30.77;15.05;;;7.70;99.90;;;;;;5074600;28;20029;-68
2022/03/21 08:15:22;;;;;;;24.92;14.43;;;7.90;99.90;;;;;;5074926;28;20388;-68
2022/03/21 08:17:48;;;;;;;33.03;15.93;;;8.00;99.90;;;;;;5074527;28;20024;-68
2022/03/21 08:20:14;;;;;;;25.08;14.27;;;8.20;99.90;;;;;;5074532;28;20023;-68
2022/03/21 08:22:40;;;;;;;30.88;15.40;;;8.50;99.90;;;;;;5074389;28;20056;-67
2022/03/21 08:25:07;;;;;;;26.83;15.77;;;8.50;99.90;;;;;;5074320;28;20052;-68
2022/03/21 08:27:32;;;;;;;28.65;15.43;;;8.40;99.90;;;;;;5074841;28;20368;-67
2022/03/21 08:29:58;;;;;;;32.15;15.27;;;8.30;99.90;;;;;;5074540;28;20028;-67
2022/03/21 08:32:23;;;;;;;30.33;15.20;;;8.30;99.90;;;;;;5074370;28;20032;-67
2022/03/21 08:34:49;;;;;;;27.35;14.02;;;8.40;99.90;;;;;;5074229;28;20020;-67
2022/03/21 08:37:14;;;;;;;25.33;13.63;;;8.70;99.90;;;;;;5074857;28;20029;-67
2022/03/21 08:39:40;;;;;;;26.58;14.65;;;9.10;99.90;;;;;;5072902;28;20029;-67
2022/03/21 08:42:06;;;;;;;34.20;15.48;;;9.20;99.90;;;;;;5074572;28;20074;-67
2022/03/21 08:44:31;;;;;;;33.20;14.52;;;9.40;99.90;;;;;;5074077;28;20029;-67
2022/03/21 08:46:57;;;;;;;30.23;14.52;;;9.50;99.90;;;;;;5074129;28;20391;-67
2022/03/21 08:49:26;;;;;;;27.83;14.93;;;9.50;99.90;;;;;;5073934;28;20020;-67
2022/03/21 08:51:52;;;;;;;25.90;15.30;;;9.40;99.90;;;;;;5074017;28;20017;-67
2022/03/21 08:54:18;;;;;;;31.17;16.45;;;9.20;99.90;;;;;;5073924;28;20349;-67
2022/03/21 08:56:44;;;;;;;28.38;16.08;;;9.20;99.90;;;;;;5073873;28;20074;-66
2022/03/21 08:59:09;;;;;;;29.10;15.60;;;9.20;99.90;;;;;;5074096;28;20369;-67
2022/03/21 09:01:35;;;;;;;27.55;15.20;;;9.20;99.90;;;;;;5073690;28;20034;-67
2022/03/21 09:04:01;;;;;;;27.20;15.20;;;9.40;99.90;;;;;;5074012;28;20031;-67
2022/03/21 09:06:27;;;;;;;27.88;15.80;;;9.50;99.90;;;;;;5074209;28;20426;-67
2022/03/21 09:08:53;;;;;;;29.08;15.85;;;9.60;99.90;;;;;;5073591;28;20020;-67
2022/03/21 09:11:19;;;;;;;27.50;15.55;;;9.60;99.90;;;;;;5073648;28;20028;-68
2022/03/21 09:13:46;;;;;;;23.40;14.63;;;9.70;99.90;;;;;;5073625;28;20044;-67
2022/03/21 09:16:13;;;;;;;28.55;14.70;;;9.80;99.90;;;;;;5073521;28;20024;-67
2022/03/21 09:18:39;;;;;;;29.23;14.45;;;9.70;99.90;;;;;;5073545;28;20396;-67
2022/03/21 09:21:05;;;;;;;33.28;15.63;;;9.90;99.90;;;;;;5073485;28;20032;-67
2022/03/21 09:23:31;;;;;;;31.80;16.38;;;9.90;99.90;;;;;;5073537;28;20028;-68
2022/03/21 09:25:56;;;;;;;31.15;16.23;;;9.60;99.90;;;;;;5073439;28;20031;-67
2022/03/21 09:28:22;;;;;;;26.80;15.88;;;9.70;99.90;;;;;;5073354;28;20029;-67
2022/03/21 09:30:48;;;;;;;28.25;16.33;;;10.00;99.90;;;;;;5073694;28;20029;-67
2022/03/21 09:33:15;;;;;;;30.85;15.38;;;10.10;99.90;;;;;;5125432;23;20071;-70
2022/03/21 09:35:43;;;;;;;32.60;15.55;;;10.50;99.90;;;;;;5073620;28;20016;-71
2022/03/21 09:38:09;;;;;;;32.40;16.27;;;10.70;99.90;;;;;;5072249;28;20391;-70
2022/03/21 09:40:35;;;;;;;23.52;15.15;;;10.90;99.90;;;;;;5073593;28;20028;-71
2022/03/21 09:43:01;;;;;;;26.00;15.52;;;11.20;99.90;;;;;;5073454;28;20149;-70
2022/03/21 09:45:28;;;;;;;30.25;16.33;;;11.20;99.90;;;;;;5073461;28;20028;-70
2022/03/21 09:48:09;;;;;;;26.27;15.35;;;11.40;99.90;;;;;;5073755;28;20032;-70
2022/03/21 09:50:42;;;;;;;23.27;14.45;;;11.70;99.90;;;;;;5073592;28;20029;-70
2022/03/21 09:53:10;;;;;;;27.65;15.40;;;11.90;99.90;;;;;;5073638;28;20407;-70
2022/03/21 09:55:36;;;;;;;27.55;16.55;;;11.90;99.70;;;;;;5073474;28;20086;-69
2022/03/21 09:58:03;;;;;;;29.67;15.10;;;11.90;99.90;;;;;;5073497;28;20468;-69
2022/03/21 10:00:29;;;;;;;28.70;15.43;;;11.90;99.70;;;;;;5073169;28;20040;-69
2022/03/21 10:02:56;;;;;;;28.13;15.95;;;12.00;99.90;;;;;;5073083;28;20062;-69
2022/03/21 10:05:43;;;;;;;36.65;16.63;;;12.00;97.50;;;;;;5073483;28;20032;-69
2022/03/21 10:08:30;;;;;;;27.88;15.27;;;12.00;98.70;;;;;;5077135;28;20032;-69
2022/03/21 10:11:04;;;;;;;28.52;16.95;;;12.30;99.00;;;;;;5077105;28;20476;-69
2022/03/21 10:13:34;;;;;;;24.58;16.05;;;12.30;97.80;;;;;;5076973;28;20024;-69
2022/03/21 10:16:15;;;;;;;26.17;15.52;;;12.30;97.00;;;;;;5077234;28;20017;-69
2022/03/21 10:18:52;;;;;;;25.13;15.65;;;12.30;97.80;;;;;;5076932;28;20452;-69
2022/03/21 10:21:18;;;;;;;27.10;15.68;;;12.50;98.10;;;;;;5076916;28;20024;-69
2022/03/21 10:23:56;;;;;;;38.55;17.50;;;12.90;99.80;;;;;;5076471;28;20396;-69
2022/03/21 10:26:30;;;;;;;33.97;17.15;;;13.40;96.50;;;;;;5077207;28;20029;-69
2022/03/21 10:28:58;;;;;;;28.23;15.52;;;13.30;95.70;;;;;;5076820;28;20032;-69
2022/03/21 10:31:47;;;;;;;24.63;15.88;;;12.80;95.00;;;;;;5076713;28;20020;-69
2022/03/21 10:34:20;;;;;;;32.42;16.23;;;12.40;95.50;;;;;;5076904;28;20484;-69
2022/03/21 10:37:08;;;;;;;30.50;16.50;;;12.40;96.90;;;;;;5076818;28;20021;-69
2022/03/21 10:39:35;;;;;;;29.85;16.13;;;12.20;97.80;;;;;;5076726;28;20431;-69
2022/03/21 10:42:04;;;;;;;25.30;15.63;;;12.30;98.30;;;;;;5076669;28;20093;-69
2022/03/21 10:44:31;;;;;;;27.92;16.67;;;12.40;97.20;;;;;;5076646;28;20020;-69
2022/03/21 10:47:04;;;;;;;30.42;16.77;;;12.40;96.60;;;;;;5076328;28;20024;-69
2022/03/21 10:49:38;;;;;;;34.38;16.95;;;12.60;96.40;;;;;;5075039;28;20028;-69
2022/03/21 10:52:05;;;;;;;26.42;16.60;;;12.40;96.00;;;;;;5076257;28;20045;-69
2022/03/21 10:54:42;;;;;;;37.13;18.05;;;12.30;97.90;;;;;;5076442;28;20384;-69
2022/03/21 10:57:31;;;;;;;30.65;17.90;;;12.50;97.60;;;;;;5076200;28;20489;-69
2022/03/21 11:00:21;;;;;;;34.15;18.73;;;12.80;96.40;;;;;;5076720;28;20380;-69
2022/03/21 11:03:09;;;;;;;30.38;17.90;;;13.20;95.30;;;;;;5076362;28;20036;-69
2022/03/21 11:05:36;;;;;;;28.10;17.73;;;13.10;95.70;;;;;;5076113;28;20095;-69
2022/03/21 11:08:07;;;;;;;29.50;17.30;;;13.30;94.40;;;;;;5075894;28;20025;-69
2022/03/21 11:10:33;;;;;;;33.13;19.10;;;13.40;94.00;;;;;;5076000;28;20492;-69
2022/03/21 11:13:01;;;;;;;30.08;18.58;;;13.50;94.70;;;;;;5075985;28;20044;-69
2022/03/21 11:15:30;;;;;;;32.88;20.67;;;13.70;95.10;;;;;;5075912;28;20046;-69
2022/03/21 11:17:57;;;;;;;29.55;18.35;;;14.20;96.00;;;;;;5074983;28;20488;-69
2022/03/21 11:20:23;;;;;;;35.17;17.65;;;14.50;92.10;;;;;;5075832;28;20028;-69
2022/03/21 11:22:49;;;;;;;32.40;18.23;;;14.50;91.80;;;;;;5075738;28;20125;-69
2022/03/21 11:25:17;;;;;;;33.50;19.40;;;14.30;93.40;;;;;;5075744;28;20127;-69
2022/03/21 11:27:56;;;;;;;33.40;17.00;;;14.50;93.30;;;;;;5075995;28;20016;-69
2022/03/21 11:30:49;;;;;;;30.92;18.73;;;14.90;91.40;;;;;;5075963;28;20100;-69
2022/03/21 11:33:35;;;;;;;36.00;16.97;;;14.80;91.40;;;;;;5075543;28;20060;-69
2022/03/21 11:36:06;;;;;;;70.43;19.63;;;14.70;89.50;;;;;;5075882;28;20316;-68
2022/03/21 11:39:00;;;;;;;29.58;17.33;;;14.60;91.30;;;;;;5075806;28;20052;-69
2022/03/21 11:41:26;;;;;;;26.33;17.17;;;15.20;91.70;;;;;;5075444;28;20031;-68
2022/03/21 11:44:04;;;;;;;35.35;17.73;;;15.80;92.00;;;;;;5075335;28;20484;-69
2022/03/21 11:46:35;;;;;;;25.77;15.82;;;16.30;91.20;;;;;;5075332;28;20047;-68
2022/03/21 11:49:25;;;;;;;28.42;18.27;;;16.10;84.90;;;;;;5075424;28;20032;-69
2022/03/21 11:51:59;;;;;;;28.42;17.27;;;16.00;86.60;;;;;;5071853;28;20044;-69
2022/03/21 11:54:31;;;;;;;30.00;17.33;;;16.40;87.10;;;;;;5075234;28;20388;-69
2022/03/21 11:57:02;;;;;;;33.33;18.05;;;16.60;86.10;;;;;;5075197;28;20407;-69
2022/03/21 11:59:34;;;;;;;32.60;18.98;;;16.60;85.70;;;;;;5075034;28;20429;-69
2022/03/21 12:02:25;;;;;;;28.67;17.85;;;16.50;80.70;;;;;;5075080;28;20077;-69
2022/03/21 12:05:09;;;;;;;32.70;18.45;;;17.00;87.10;;;;;;5075515;28;20116;-69
2022/03/21 12:07:37;;;;;;;35.00;17.67;;;17.10;81.80;;;;;;5075439;28;20460;-69
2022/03/21 12:10:03;;;;;;;32.25;18.27;;;17.30;79.90;;;;;;5074871;28;20031;-69
2022/03/21 12:12:40;;;;;;;23.83;17.10;;;17.50;81.90;;;;;;5075048;28;20104;-69
2022/03/21 12:15:31;;;;;;;34.25;18.13;;;17.50;80.30;;;;;;5074867;28;20384;-69
2022/03/21 12:17:57;;;;;;;36.20;17.92;;;17.50;76.20;;;;;;5075337;28;20020;-69
2022/03/21 12:20:23;;;;;;;28.30;17.98;;;18.00;79.90;;;;;;5074983;28;20094;-69
2022/03/21 12:22:49;;;;;;;34.67;19.02;;;18.70;78.40;;;;;;5074860;28;20021;-69
2022/03/21 12:25:22;;;;;;;32.00;18.52;;;19.50;75.20;;;;;;5074654;28;20436;-69
2022/03/21 12:27:55;;;;;;;29.85;18.05;;;19.20;71.30;;;;;;5074646;28;20113;-69
2022/03/21 12:30:20;;;;;;;33.90;18.17;;;19.50;72.70;;;;;;5074776;28;20038;-69
2022/03/21 12:32:50;;;;;;;26.80;17.40;;;18.80;69.30;;;;;;5074077;28;20497;-69
2022/03/21 12:35:31;;;;;;;27.23;18.33;;;18.60;70.70;;;;;;5074373;28;20020;-69
2022/03/21 12:38:09;;;;;;;31.10;18.45;;;18.90;69.40;;;;;;5074600;28;20539;-69
2022/03/21 12:40:50;;;;;;;27.92;17.65;;;19.20;68.90;;;;;;5074672;28;20357;-69
2022/03/21 12:43:19;;;;;;;26.13;16.80;;;19.30;68.10;;;;;;5074364;28;20052;-69
2022/03/21 12:45:45;;;;;;;34.38;17.85;;;19.60;70.30;;;;;;5074646;28;20021;-69
2022/03/21 12:48:13;;;;;;;26.08;18.27;;;19.70;67.30;;;;;;5074811;28;20024;-70
2022/03/21 12:50:39;;;;;;;28.27;18.13;;;19.80;66.00;;;;;;5074347;28;20033;-70
2022/03/21 12:53:10;;;;;;;30.70;18.30;;;20.30;65.80;;;;;;5074043;28;20028;-70
2022/03/21 12:55:38;;;;;;;30.15;17.58;;;20.80;64.70;;;;;;5074150;28;20035;-71
2022/03/21 12:58:06;;;;;;;27.90;18.25;;;21.20;65.70;;;;;;5074341;28;20066;-71